createdAt,value
2019-03-28T00:02:19.249Z,-2.23
2019-03-28T00:04:49.044Z,-2.38
2019-03-28T00:07:18.804Z,-2.27
2019-03-28T00:09:48.600Z,-2.06
2019-03-28T00:12:18.515Z,-2.07
2019-03-28T00:14:48.347Z,-2.23
2019-03-28T00:17:18.086Z,-2.32
2019-03-28T00:19:47.747Z,-2.40
2019-03-28T00:22:19.097Z,-2.40
2019-03-28T00:24:50.391Z,-2.45
2019-03-28T00:27:20.104Z,-2.51
2019-03-28T00:29:49.964Z,-2.51
2019-03-28T00:32:19.734Z,-2.73
2019-03-28T00:34:49.481Z,-2.75
2019-03-28T00:37:19.188Z,-2.68
2019-03-28T00:39:48.980Z,-2.62
2019-03-28T00:42:18.647Z,-2.60
2019-03-28T00:44:48.457Z,-2.62
2019-03-28T00:47:18.239Z,-2.62
2019-03-28T00:49:47.906Z,-2.70
2019-03-28T00:52:17.618Z,-2.80
2019-03-28T00:54:47.447Z,-2.87
2019-03-28T00:57:17.248Z,-2.87
2019-03-28T00:59:46.963Z,-2.84
2019-03-28T01:02:16.666Z,-2.98
2019-03-28T01:04:46.450Z,-3.16
2019-03-28T01:07:16.227Z,-3.16
2019-03-28T01:09:46.023Z,-3.10
2019-03-28T01:12:15.741Z,-3.08
2019-03-28T01:14:45.525Z,-3.15
2019-03-28T01:17:15.200Z,-3.03
2019-03-28T01:19:44.855Z,-3.15
2019-03-28T01:22:14.911Z,-3.10
2019-03-28T01:24:44.843Z,-3.08
2019-03-28T01:27:14.564Z,-3.02
2019-03-28T01:29:44.447Z,-3.06
2019-03-28T01:32:14.166Z,-3.06
2019-03-28T01:34:43.852Z,-3.13
2019-03-28T01:37:13.561Z,-3.08
2019-03-28T01:39:43.477Z,-3.08
2019-03-28T01:42:13.355Z,-3.08
2019-03-28T01:44:43.315Z,-3.08
2019-03-28T01:47:12.945Z,-3.03
2019-03-28T01:49:42.611Z,-3.08
2019-03-28T01:52:12.391Z,-3.13
2019-03-28T01:54:42.126Z,-3.08
2019-03-28T01:57:12.818Z,-2.95
2019-03-28T01:59:42.783Z,-2.98
2019-03-28T02:02:12.434Z,-2.93
2019-03-28T02:04:42.225Z,-2.93
2019-03-28T02:07:12.055Z,-2.99
2019-03-28T02:09:41.824Z,-3.07
2019-03-28T02:12:11.523Z,-3.03
2019-03-28T02:14:41.223Z,-2.97
2019-03-28T02:17:10.991Z,-2.95
2019-03-28T02:19:40.775Z,-3.17
2019-03-28T02:22:10.509Z,-3.27
2019-03-28T02:24:40.196Z,-3.27
2019-03-28T02:27:23.033Z,-3.18
2019-03-28T02:29:41.343Z,-3.18
2019-03-28T02:32:11.108Z,-3.18
2019-03-28T02:34:41.276Z,-3.16
2019-03-28T02:37:10.972Z,-3.16
2019-03-28T02:39:40.764Z,-3.20
2019-03-28T02:42:10.576Z,-3.20
2019-03-28T02:44:40.254Z,-3.02
2019-03-28T02:47:09.988Z,-3.05
2019-03-28T02:49:39.664Z,-3.02
2019-03-28T02:52:09.481Z,-3.11
2019-03-28T02:54:39.307Z,-3.07
2019-03-28T02:57:08.995Z,-3.07
2019-03-28T02:59:38.766Z,-3.13
2019-03-28T03:02:08.927Z,-3.13
2019-03-28T03:04:39.082Z,-3.26
2019-03-28T03:07:08.862Z,-3.42
2019-03-28T03:09:38.650Z,-3.40
2019-03-28T03:12:08.314Z,-3.37
2019-03-28T03:14:38.101Z,-3.24
2019-03-28T03:17:07.863Z,-3.18
2019-03-28T03:19:37.629Z,-3.18
2019-03-28T03:22:07.313Z,-3.21
2019-03-28T03:24:37.085Z,-3.13
2019-03-28T03:27:06.836Z,-3.13
2019-03-28T03:29:36.664Z,-3.08
2019-03-28T03:32:06.556Z,-3.06
2019-03-28T03:34:36.239Z,-3.06
2019-03-28T03:37:06.067Z,-3.01
2019-03-28T03:39:35.820Z,-2.97
2019-03-28T03:42:05.607Z,-2.90
2019-03-28T03:44:35.423Z,-2.90
2019-03-28T03:47:05.123Z,-2.81
2019-03-28T03:49:35.007Z,-2.78
2019-03-28T03:52:04.797Z,-2.81
2019-03-28T03:54:34.696Z,-2.75
2019-03-28T03:57:04.524Z,-2.79
2019-03-28T03:59:34.296Z,-2.88
2019-03-28T04:02:04.032Z,-2.88
2019-03-28T04:04:33.883Z,-2.97
2019-03-28T04:07:03.548Z,-2.97
2019-03-28T04:09:33.288Z,-3.00
2019-03-28T04:12:03.089Z,-3.07
2019-03-28T04:14:32.747Z,-3.03
2019-03-28T04:17:02.521Z,-3.07
2019-03-28T04:19:32.445Z,-2.85
2019-03-28T04:22:02.315Z,-2.80
2019-03-28T04:24:32.081Z,-2.80
2019-03-28T04:27:01.816Z,-2.76
2019-03-28T04:29:31.471Z,-2.70
2019-03-28T04:32:01.243Z,-2.60
2019-03-28T04:34:31.046Z,-2.53
2019-03-28T04:37:00.761Z,-2.46
2019-03-28T04:39:30.837Z,-2.41
2019-03-28T04:42:00.694Z,-2.38
2019-03-28T04:44:30.514Z,-2.42
2019-03-28T04:47:00.329Z,-2.54
2019-03-28T04:49:30.858Z,-2.60
2019-03-28T04:52:00.553Z,-2.56
2019-03-28T04:54:30.205Z,-2.50
2019-03-28T04:57:00.142Z,-2.49
2019-03-28T04:59:29.997Z,-2.37
2019-03-28T05:02:03.376Z,-2.29
2019-03-28T05:04:31.146Z,-2.22
2019-03-28T05:07:00.938Z,-2.16
2019-03-28T05:09:30.716Z,-2.22
2019-03-28T05:12:00.558Z,-2.16
2019-03-28T05:14:30.329Z,-2.10
2019-03-28T05:17:00.233Z,-2.01
2019-03-28T05:19:30.032Z,-2.01
2019-03-28T05:21:59.743Z,-1.95
2019-03-28T05:24:29.511Z,-1.94
2019-03-28T05:26:59.243Z,-1.90
2019-03-28T05:29:29.008Z,-1.88
2019-03-28T05:31:58.797Z,-1.73
2019-03-28T05:34:28.604Z,-1.73
2019-03-28T05:36:58.251Z,-1.71
2019-03-28T05:39:30.625Z,-1.59
2019-03-28T05:42:00.397Z,-1.59
2019-03-28T05:44:30.168Z,-1.61
2019-03-28T05:46:59.863Z,-1.60
2019-03-28T05:49:29.657Z,-1.60
2019-03-28T05:51:59.463Z,-1.50
2019-03-28T05:54:29.206Z,-1.38
2019-03-28T05:56:58.952Z,-1.21
2019-03-28T05:59:28.693Z,-1.09
2019-03-28T06:01:58.513Z,-1.00
2019-03-28T06:04:28.232Z,-0.94
2019-03-28T06:06:58.080Z,-0.93
2019-03-28T06:09:27.755Z,-0.90
2019-03-28T06:11:57.559Z,-0.79
2019-03-28T06:14:28.329Z,-0.76
2019-03-28T06:16:58.108Z,-0.69
2019-03-28T06:19:27.812Z,-0.61
2019-03-28T06:21:57.531Z,-0.49
2019-03-28T06:24:27.308Z,-0.45
2019-03-28T06:26:57.179Z,-0.42
2019-03-28T06:29:26.973Z,-0.32
2019-03-28T06:31:56.712Z,-0.25
2019-03-28T06:34:26.709Z,-0.09
2019-03-28T06:36:56.580Z,0.02
2019-03-28T06:39:26.374Z,0.07
2019-03-28T06:41:56.100Z,0.08
2019-03-28T06:44:25.850Z,0.08
2019-03-28T06:46:55.540Z,0.15
2019-03-28T06:49:25.739Z,0.27
2019-03-28T06:51:55.434Z,0.41
2019-03-28T06:54:25.313Z,1.48
2019-03-28T06:56:55.414Z,1.87
2019-03-28T06:59:36.756Z,2.41
2019-03-28T07:01:56.813Z,2.96
2019-03-28T07:04:27.049Z,3.44
2019-03-28T07:06:56.957Z,3.67
2019-03-28T07:09:26.749Z,3.68
2019-03-28T07:11:56.481Z,3.68
2019-03-28T07:14:26.513Z,3.92
2019-03-28T07:16:57.380Z,4.18
2019-03-28T07:19:27.192Z,4.07
2019-03-28T07:21:57.823Z,4.30
2019-03-28T07:24:27.509Z,3.86
2019-03-28T07:26:57.343Z,3.93
2019-03-28T07:29:27.056Z,3.38
2019-03-28T07:31:56.815Z,3.15
2019-03-28T07:34:26.592Z,3.24
2019-03-28T07:36:56.372Z,3.40
2019-03-28T07:39:27.111Z,3.50
2019-03-28T07:41:56.905Z,3.55
2019-03-28T07:44:26.675Z,3.60
2019-03-28T07:46:56.447Z,3.60
2019-03-28T07:49:26.166Z,3.51
2019-03-28T07:51:55.928Z,3.38
2019-03-28T07:54:25.814Z,3.54
2019-03-28T07:56:55.499Z,3.58
2019-03-28T07:59:25.448Z,3.69
2019-03-28T08:01:55.306Z,3.53
2019-03-28T08:04:25.804Z,3.31
2019-03-28T08:06:55.624Z,3.42
2019-03-28T08:09:36.057Z,3.75
2019-03-28T08:11:57.735Z,3.95
2019-03-28T08:14:27.509Z,4.01
2019-03-28T08:16:57.600Z,4.26
2019-03-28T08:19:27.773Z,4.20
2019-03-28T08:21:57.457Z,4.20
2019-03-28T08:24:27.291Z,4.27
2019-03-28T08:26:57.075Z,4.33
2019-03-28T08:29:27.120Z,4.50
2019-03-28T08:31:57.494Z,4.78
2019-03-28T08:34:27.197Z,4.96
2019-03-28T08:36:57.149Z,5.06
2019-03-28T08:39:27.180Z,5.34
2019-03-28T08:41:56.886Z,5.95
2019-03-28T08:44:26.572Z,6.06
2019-03-28T08:46:56.353Z,5.80
2019-03-28T08:49:26.220Z,5.62
2019-03-28T08:51:55.985Z,5.80
2019-03-28T08:54:29.252Z,5.82
2019-03-28T08:56:58.925Z,5.87
2019-03-28T08:59:43.904Z,5.90
2019-03-28T09:02:28.947Z,6.10
2019-03-28T09:04:58.777Z,6.12
2019-03-28T09:07:28.573Z,6.32
2019-03-28T09:09:58.331Z,6.35
2019-03-28T09:12:28.137Z,6.50
2019-03-28T09:14:58.063Z,6.76
2019-03-28T09:17:27.815Z,6.75
2019-03-28T09:19:57.595Z,6.63
2019-03-28T09:22:27.431Z,6.64
2019-03-28T09:24:59.075Z,6.63
2019-03-28T09:27:28.646Z,6.63
2019-03-28T09:29:58.958Z,6.76
2019-03-28T09:32:28.947Z,6.80
2019-03-28T09:34:59.086Z,6.90
2019-03-28T09:37:28.834Z,7.07
2019-03-28T09:39:58.700Z,7.20
2019-03-28T09:42:28.999Z,7.40
2019-03-28T09:44:58.813Z,7.58
2019-03-28T09:47:28.790Z,7.62
2019-03-28T09:49:58.424Z,7.76
2019-03-28T09:52:28.219Z,7.88
2019-03-28T09:54:58.927Z,7.89
2019-03-28T09:57:28.676Z,7.93
2019-03-28T09:59:58.835Z,7.94
2019-03-28T10:02:31.163Z,7.79
2019-03-28T10:05:01.619Z,7.53
2019-03-28T10:07:31.404Z,7.56
2019-03-28T10:10:03.063Z,7.60
2019-03-28T10:12:34.317Z,7.73
2019-03-28T10:15:06.426Z,7.96
2019-03-28T10:17:36.158Z,8.14
2019-03-28T10:20:07.679Z,8.19
2019-03-28T10:22:37.398Z,8.02
2019-03-28T10:25:08.173Z,8.30
2019-03-28T10:27:37.957Z,8.00
2019-03-28T10:30:15.007Z,8.22
2019-03-28T10:32:45.734Z,8.41
2019-03-28T10:35:18.559Z,8.59
2019-03-28T10:37:49.361Z,8.76
2019-03-28T10:40:19.061Z,8.70
2019-03-28T10:42:49.371Z,8.64
2019-03-28T10:45:21.227Z,8.84
2019-03-28T10:47:51.054Z,8.93
2019-03-28T10:50:20.861Z,8.96
2019-03-28T10:52:50.674Z,9.02
2019-03-28T10:55:20.499Z,8.88
2019-03-28T10:57:51.462Z,8.88
2019-03-28T11:00:24.267Z,8.68
2019-03-28T11:02:53.183Z,8.82
2019-03-28T11:05:23.012Z,8.93
2019-03-28T11:07:52.765Z,8.89
2019-03-28T11:10:22.581Z,8.85
2019-03-28T11:12:53.109Z,9.02
2019-03-28T11:15:24.619Z,9.24
2019-03-28T11:17:56.913Z,9.29
2019-03-28T11:20:26.817Z,9.41
2019-03-28T11:23:02.243Z,9.51
2019-03-28T11:25:31.302Z,9.55
2019-03-28T11:28:03.560Z,9.58
2019-03-28T11:30:33.460Z,9.68
2019-03-28T11:33:06.302Z,9.35
2019-03-28T11:35:34.698Z,9.14
2019-03-28T11:38:04.797Z,9.23
2019-03-28T11:40:34.978Z,9.48
2019-03-28T11:43:04.707Z,9.41
2019-03-28T11:45:34.829Z,9.27
2019-03-28T11:48:04.592Z,9.21
2019-03-28T11:50:34.698Z,9.18
2019-03-28T11:53:04.469Z,9.15
2019-03-28T11:55:34.213Z,9.21
2019-03-28T11:58:03.924Z,9.33
2019-03-28T12:00:33.740Z,9.41
2019-03-28T12:03:03.540Z,9.58
2019-03-28T12:05:33.375Z,9.50
2019-03-28T12:08:04.266Z,9.52
2019-03-28T12:10:34.392Z,9.55
2019-03-28T12:13:04.329Z,9.71
2019-03-28T12:15:34.099Z,9.70
2019-03-28T12:18:03.827Z,9.69
2019-03-28T12:20:33.665Z,9.86
2019-03-28T12:23:03.634Z,9.82
2019-03-28T12:25:33.468Z,9.94
2019-03-28T12:28:03.482Z,10.15
2019-03-28T12:30:33.340Z,10.16
2019-03-28T12:33:03.325Z,10.20
2019-03-28T12:35:33.174Z,10.30
2019-03-28T12:38:03.038Z,10.28
2019-03-28T12:40:33.052Z,10.21
2019-03-28T12:43:02.876Z,10.14
2019-03-28T12:45:32.720Z,9.97
2019-03-28T12:48:02.554Z,9.86
2019-03-28T12:50:32.361Z,10.02
2019-03-28T12:53:02.312Z,10.11
2019-03-28T12:55:32.036Z,10.08
2019-03-28T12:58:01.892Z,9.83
2019-03-28T13:00:35.934Z,9.89
2019-03-28T13:03:05.826Z,10.00
2019-03-28T13:05:35.734Z,9.92
2019-03-28T13:08:05.775Z,9.94
2019-03-28T13:10:35.877Z,9.58
2019-03-28T13:13:05.798Z,9.44
2019-03-28T13:15:36.042Z,9.20
2019-03-28T13:18:06.244Z,9.08
2019-03-28T13:20:36.059Z,9.43
2019-03-28T13:23:05.902Z,9.18
2019-03-28T13:25:36.140Z,9.31
2019-03-28T13:28:06.066Z,9.17
2019-03-28T13:30:35.919Z,9.13
2019-03-28T13:33:05.732Z,9.34
2019-03-28T13:35:35.694Z,9.43
2019-03-28T13:38:05.466Z,9.31
2019-03-28T13:40:35.189Z,9.34
2019-03-28T13:43:05.082Z,9.29
2019-03-28T13:45:38.821Z,9.31
2019-03-28T13:48:09.376Z,9.33
2019-03-28T13:50:41.613Z,9.37
2019-03-28T13:53:13.862Z,9.42
2019-03-28T13:55:44.542Z,9.47
2019-03-28T13:58:14.624Z,9.56
2019-03-28T14:00:45.313Z,9.63
2019-03-28T14:03:15.167Z,9.72
2019-03-28T14:05:45.266Z,9.70
2019-03-28T14:08:16.986Z,9.73
2019-03-28T14:10:46.809Z,9.62
2019-03-28T14:13:16.591Z,9.65
2019-03-28T14:15:46.379Z,9.68
2019-03-28T14:18:16.146Z,9.65
2019-03-28T14:20:45.994Z,9.54
2019-03-28T14:23:15.862Z,9.52
2019-03-28T14:25:45.711Z,9.35
2019-03-28T14:28:15.543Z,9.43
2019-03-28T14:30:45.436Z,9.57
2019-03-28T14:33:16.036Z,9.71
2019-03-28T14:35:46.086Z,9.75
2019-03-28T14:38:15.973Z,9.70
2019-03-28T14:40:45.752Z,9.54
2019-03-28T14:43:15.632Z,9.57
2019-03-28T14:45:47.183Z,9.52
2019-03-28T14:48:17.037Z,9.35
2019-03-28T14:50:49.438Z,9.19
2019-03-28T14:53:22.380Z,9.06
2019-03-28T14:55:52.710Z,8.82
2019-03-28T14:58:24.178Z,8.61
2019-03-28T15:00:54.799Z,8.51
2019-03-28T15:03:26.635Z,8.44
2019-03-28T15:05:56.219Z,8.41
2019-03-28T15:08:26.167Z,8.41
2019-03-28T15:10:55.961Z,8.38
2019-03-28T15:13:25.779Z,8.34
2019-03-28T15:15:55.614Z,8.32
2019-03-28T15:18:25.421Z,8.28
2019-03-28T15:20:55.232Z,8.37
2019-03-28T15:23:25.221Z,8.35
2019-03-28T15:25:55.177Z,8.47
2019-03-28T15:28:24.975Z,8.71
2019-03-28T15:30:55.749Z,8.94
2019-03-28T15:33:38.356Z,8.93
2019-03-28T15:35:57.254Z,8.88
2019-03-28T15:38:27.117Z,8.85
2019-03-28T15:40:56.968Z,8.82
2019-03-28T15:43:28.457Z,8.77
2019-03-28T15:45:59.489Z,8.73
2019-03-28T15:48:29.492Z,8.96
2019-03-28T15:50:59.571Z,8.97
2019-03-28T15:53:29.482Z,8.89
2019-03-28T15:55:59.327Z,8.77
2019-03-28T15:58:29.318Z,8.69
2019-03-28T16:00:59.209Z,8.61
2019-03-28T16:03:30.274Z,8.53
2019-03-28T16:06:00.091Z,8.64
2019-03-28T16:08:29.929Z,8.79
2019-03-28T16:10:59.697Z,8.71
2019-03-28T16:13:30.653Z,8.62
2019-03-28T16:16:00.599Z,8.54
2019-03-28T16:18:30.366Z,8.46
2019-03-28T16:21:00.267Z,8.37
2019-03-28T16:23:30.243Z,8.33
2019-03-28T16:26:00.198Z,8.26
2019-03-28T16:28:29.910Z,8.18
2019-03-28T16:31:00.134Z,8.12
2019-03-28T16:33:30.448Z,8.04
2019-03-28T16:36:00.630Z,7.96
2019-03-28T16:38:32.816Z,7.88
2019-03-28T16:41:02.260Z,7.81
2019-03-28T16:43:32.641Z,7.77
2019-03-28T16:46:02.562Z,7.71
2019-03-28T16:48:32.380Z,7.63
2019-03-28T16:51:02.245Z,7.57
2019-03-28T16:53:32.189Z,7.51
2019-03-28T16:56:02.044Z,7.46
2019-03-28T16:58:31.926Z,7.43
2019-03-28T17:01:01.949Z,7.37
2019-03-28T17:03:31.751Z,7.41
2019-03-28T17:06:01.593Z,7.36
2019-03-28T17:08:32.900Z,7.26
2019-03-28T17:11:02.730Z,7.59
2019-03-28T17:13:33.711Z,8.38
2019-03-28T17:16:03.794Z,8.03
2019-03-28T17:18:34.004Z,7.76
2019-03-28T17:21:03.809Z,7.55
2019-03-28T17:23:33.664Z,7.39
2019-03-28T17:26:05.221Z,7.26
2019-03-28T17:28:35.005Z,7.17
2019-03-28T17:31:05.005Z,7.07
2019-03-28T17:33:34.787Z,6.99
2019-03-28T17:36:04.609Z,6.92
2019-03-28T17:38:34.490Z,6.88
2019-03-28T17:41:06.560Z,6.88
2019-03-28T17:43:36.007Z,6.86
2019-03-28T17:46:05.931Z,6.83
2019-03-28T17:48:35.736Z,6.81
2019-03-28T17:51:05.629Z,6.81
2019-03-28T17:53:35.521Z,6.83
2019-03-28T17:56:07.927Z,6.90
2019-03-28T17:58:38.193Z,7.10
2019-03-28T18:01:08.426Z,7.40
2019-03-28T18:03:38.271Z,7.40
2019-03-28T18:06:09.045Z,7.25
2019-03-28T18:08:38.870Z,7.26
2019-03-28T18:11:09.047Z,7.34
2019-03-28T18:13:39.221Z,7.19
2019-03-28T18:16:10.116Z,7.04
2019-03-28T18:18:39.907Z,6.94
2019-03-28T18:21:11.250Z,6.87
2019-03-28T18:23:41.322Z,6.89
2019-03-28T18:26:11.139Z,6.91
2019-03-28T18:28:40.929Z,6.88
2019-03-28T18:31:11.675Z,6.90
2019-03-28T18:33:42.183Z,6.88
2019-03-28T18:36:12.273Z,6.86
2019-03-28T18:38:42.096Z,6.80
2019-03-28T18:41:12.140Z,6.74
2019-03-28T18:43:43.799Z,6.69
2019-03-28T18:46:14.886Z,6.66
2019-03-28T18:48:44.939Z,6.63
2019-03-28T18:51:14.734Z,6.62
2019-03-28T18:53:44.619Z,6.61
2019-03-28T18:56:15.476Z,6.59
2019-03-28T18:58:45.374Z,6.60
2019-03-28T19:01:15.277Z,6.59
2019-03-28T19:03:45.620Z,6.61
2019-03-28T19:06:16.852Z,6.59
2019-03-28T19:08:46.986Z,6.56
2019-03-28T19:11:16.837Z,6.54
2019-03-28T19:13:47.128Z,6.57
2019-03-28T19:16:17.459Z,6.58
2019-03-28T19:18:47.605Z,6.57
2019-03-28T19:21:18.858Z,6.55
2019-03-28T19:23:50.578Z,6.54
2019-03-28T19:26:20.552Z,6.53
2019-03-28T19:28:50.336Z,6.50
2019-03-28T19:31:20.985Z,6.49
2019-03-28T19:33:50.951Z,6.46
2019-03-28T19:36:21.129Z,6.44
2019-03-28T19:38:51.655Z,6.44
2019-03-28T19:41:21.474Z,6.43
2019-03-28T19:43:51.321Z,6.41
2019-03-28T19:46:21.493Z,6.38
2019-03-28T19:48:52.311Z,6.36
2019-03-28T19:51:22.464Z,6.32
2019-03-28T19:53:53.946Z,6.31
2019-03-28T19:56:24.756Z,6.26
2019-03-28T19:58:57.278Z,6.20
2019-03-28T20:01:26.422Z,6.14
2019-03-28T20:03:56.643Z,6.10
2019-03-28T20:06:27.194Z,6.08
2019-03-28T20:08:58.525Z,6.08
2019-03-28T20:11:28.805Z,6.08
2019-03-28T20:13:58.674Z,6.09
2019-03-28T20:16:29.725Z,6.06
2019-03-28T20:18:59.551Z,6.04
2019-03-28T20:21:29.671Z,6.14
2019-03-28T20:23:59.596Z,6.75
2019-03-28T20:26:29.818Z,6.60
2019-03-28T20:29:00.476Z,6.43
2019-03-28T20:31:30.674Z,6.30
2019-03-28T20:34:01.633Z,6.20
2019-03-28T20:36:38.542Z,6.13
2019-03-28T20:39:05.402Z,6.03
2019-03-28T20:41:36.549Z,5.93
2019-03-28T20:44:06.349Z,5.86
2019-03-28T20:46:36.310Z,5.81
2019-03-28T20:49:06.269Z,5.80
2019-03-28T20:51:36.134Z,5.75
2019-03-28T20:54:07.752Z,5.71
2019-03-28T20:56:37.641Z,5.67
2019-03-28T20:59:08.658Z,5.66
2019-03-28T21:01:38.770Z,5.59
2019-03-28T21:04:10.907Z,5.54
2019-03-28T21:06:41.124Z,5.51
2019-03-28T21:09:11.304Z,5.50
2019-03-28T21:11:42.074Z,5.47
2019-03-28T21:14:11.983Z,5.45
2019-03-28T21:16:41.855Z,5.40
2019-03-28T21:19:11.793Z,5.41
2019-03-28T21:21:44.459Z,5.47
2019-03-28T21:24:13.171Z,5.55
2019-03-28T21:26:43.262Z,5.56
2019-03-28T21:29:13.508Z,5.54
2019-03-28T21:31:49.858Z,5.53
2019-03-28T21:34:15.215Z,5.53
2019-03-28T21:36:46.034Z,5.52
2019-03-28T21:39:15.838Z,5.53
2019-03-28T21:41:46.075Z,5.48
2019-03-28T21:44:16.172Z,5.39
2019-03-28T21:46:45.996Z,5.32
2019-03-28T21:49:15.778Z,5.27
2019-03-28T21:51:46.035Z,5.27
2019-03-28T21:54:16.059Z,5.26
2019-03-28T21:56:45.830Z,5.24
2019-03-28T21:59:17.626Z,5.22
2019-03-28T22:01:47.179Z,5.22
2019-03-28T22:04:16.929Z,5.21
2019-03-28T22:06:46.775Z,5.19
2019-03-28T22:09:16.597Z,5.19
2019-03-28T22:11:46.353Z,5.18
2019-03-28T22:14:16.099Z,5.19
2019-03-28T22:16:45.857Z,5.23
2019-03-28T22:19:15.596Z,5.30
2019-03-28T22:21:45.311Z,5.16
2019-03-28T22:24:15.126Z,5.06
2019-03-28T22:26:46.191Z,5.00
2019-03-28T22:29:16.038Z,5.00
2019-03-28T22:31:45.729Z,5.01
2019-03-28T22:34:15.503Z,4.95
2019-03-28T22:36:56.621Z,4.91
2019-03-28T22:39:16.680Z,4.93
2019-03-28T22:41:46.370Z,5.15
2019-03-28T22:44:16.138Z,5.19
2019-03-28T22:46:45.947Z,5.34
2019-03-28T22:49:15.712Z,5.20
2019-03-28T22:51:45.463Z,5.11
2019-03-28T22:54:15.219Z,5.04
2019-03-28T22:56:45.038Z,5.01
2019-03-28T22:59:14.798Z,5.00
2019-03-28T23:01:44.505Z,4.99
2019-03-28T23:04:14.277Z,4.96
2019-03-28T23:06:44.079Z,4.92
2019-03-28T23:09:14.186Z,4.90
2019-03-28T23:11:43.925Z,4.87
2019-03-28T23:14:13.707Z,4.86
2019-03-28T23:16:43.528Z,4.85
2019-03-28T23:19:13.334Z,4.83
2019-03-28T23:21:43.105Z,4.82
2019-03-28T23:24:12.939Z,4.80
2019-03-28T23:26:44.277Z,4.81
2019-03-28T23:29:14.228Z,5.00
2019-03-28T23:31:44.068Z,5.15
2019-03-28T23:34:13.807Z,5.30
2019-03-28T23:36:43.681Z,5.43
2019-03-28T23:39:13.512Z,5.44
2019-03-28T23:41:43.240Z,5.62
2019-03-28T23:44:13.046Z,5.74
2019-03-28T23:46:42.846Z,5.81
2019-03-28T23:49:13.212Z,5.92
2019-03-28T23:51:43.552Z,5.88
2019-03-28T23:54:13.343Z,5.75
2019-03-28T23:56:43.088Z,5.68
2019-03-28T23:59:13.318Z,5.69
